Time;durP1;ratioP1;P1;durP2;ratioP2;P2;SDS_P1;SDS_P2;PMS_P1;PMS_P2;Temp;Humidity;BMP_temperature;BMP_pressure;BME280_temperature;BME280_humidity;BME280_pressure;Samples;Min_cycle;Max_cycle;Signal;HPM_P1;HPM_P2
2023/05/31 00:01:44;;;;;;;6.80;2.20;;;13.10;68.50;;;;;;4939886;28;20047;-73
2023/05/31 00:04:11;;;;;;;5.50;1.98;;;13.10;68.40;;;;;;4936556;28;20281;-73
2023/05/31 00:06:39;;;;;;;4.78;1.85;;;13.10;68.50;;;;;;4942158;28;20795;-73
2023/05/31 00:09:06;;;;;;;7.60;2.30;;;13.10;68.60;;;;;;4926412;29;20044;-73
2023/05/31 00:11:33;;;;;;;6.38;1.95;;;13.10;68.50;;;;;;4933374;28;20143;-73
2023/05/31 00:14:00;;;;;;;4.80;1.93;;;13.00;68.60;;;;;;4945687;28;20063;-73
2023/05/31 00:16:27;;;;;;;5.05;2.15;;;13.00;68.60;;;;;;4931249;29;20257;-73
2023/05/31 00:18:53;;;;;;;7.15;2.13;;;13.00;68.60;;;;;;4936843;28;20048;-73
2023/05/31 00:21:20;;;;;;;7.03;2.50;;;13.00;68.70;;;;;;4934732;28;20062;-73
2023/05/31 00:23:49;;;;;;;5.85;2.20;;;13.00;68.60;;;;;;4931417;28;20454;-73
2023/05/31 00:26:16;;;;;;;6.33;1.90;;;13.00;68.60;;;;;;4934923;28;20048;-74
2023/05/31 00:28:45;;;;;;;5.25;1.92;;;13.00;68.60;;;;;;4929700;29;20257;-73
2023/05/31 00:31:12;;;;;;;5.30;2.10;;;12.90;68.50;;;;;;4945421;28;20523;-73
2023/05/31 00:33:39;;;;;;;6.72;2.53;;;13.00;68.50;;;;;;4930616;28;20064;-73
2023/05/31 00:36:06;;;;;;;5.00;2.10;;;12.90;68.50;;;;;;4930920;28;20078;-73
2023/05/31 00:38:33;;;;;;;5.57;2.03;;;12.90;68.40;;;;;;4929926;28;20052;-73
2023/05/31 00:41:02;;;;;;;6.00;1.83;;;12.90;68.30;;;;;;4933984;28;20333;-73
2023/05/31 00:43:28;;;;;;;6.63;2.15;;;12.80;68.30;;;;;;4938487;28;20495;-74
2023/05/31 00:45:55;;;;;;;5.22;2.10;;;12.80;68.30;;;;;;4932799;29;20545;-72
2023/05/31 00:48:22;;;;;;;5.95;2.10;;;12.70;68.40;;;;;;4936987;28;20059;-73
2023/05/31 00:50:50;;;;;;;5.77;2.17;;;12.70;68.60;;;;;;4932441;29;20549;-73
2023/05/31 00:53:18;;;;;;;5.85;2.03;;;12.70;68.70;;;;;;4932766;29;20783;-73
2023/05/31 00:55:45;;;;;;;5.45;2.08;;;12.70;68.70;;;;;;4953527;28;20079;-73
2023/05/31 00:58:14;;;;;;;6.72;2.45;;;12.60;68.80;;;;;;4932498;29;20052;-73
2023/05/31 01:00:42;;;;;;;6.13;2.40;;;12.50;69.00;;;;;;4955778;28;20052;-73
2023/05/31 01:03:12;;;;;;;6.80;2.57;;;12.50;69.00;;;;;;4937058;28;20044;-73
2023/05/31 01:05:41;;;;;;;5.50;2.30;;;12.50;69.10;;;;;;4932461;29;20883;-73
2023/05/31 01:08:08;;;;;;;6.75;2.42;;;12.50;69.10;;;;;;4932512;29;20063;-73
2023/05/31 01:10:35;;;;;;;6.80;2.40;;;12.50;69.20;;;;;;4937276;28;20701;-73
2023/05/31 01:13:07;;;;;;;6.43;2.33;;;12.50;69.20;;;;;;4931970;29;20052;-73
2023/05/31 01:15:39;;;;;;;6.10;2.40;;;12.50;69.40;;;;;;4948363;28;20108;-73
2023/05/31 01:18:18;;;;;;;6.63;2.45;;;12.30;69.50;;;;;;4934157;29;20260;-73
2023/05/31 01:20:47;;;;;;;7.47;2.35;;;12.30;69.50;;;;;;4931966;29;20055;-73
2023/05/31 01:23:42;;;;;;;7.32;2.40;;;12.30;69.50;;;;;;4934429;28;20537;-73
2023/05/31 01:26:30;;;;;;;6.45;2.47;;;12.30;69.50;;;;;;4909557;29;20547;-73
2023/05/31 01:29:02;;;;;;;6.10;2.10;;;12.30;69.30;;;;;;4917722;29;20488;-73
2023/05/31 01:31:32;;;;;;;6.75;2.30;;;12.20;69.40;;;;;;4931406;28;20281;-73
2023/05/31 01:33:59;;;;;;;6.28;2.50;;;12.20;69.30;;;;;;4940212;28;20163;-73
2023/05/31 01:36:26;;;;;;;5.70;2.13;;;12.20;69.30;;;;;;4958553;28;20056;-73
2023/05/31 01:38:53;;;;;;;6.85;2.30;;;12.20;69.40;;;;;;4936157;28;20052;-73
2023/05/31 01:41:22;;;;;;;6.23;2.23;;;12.20;69.30;;;;;;4931890;28;20191;-73
2023/05/31 01:43:51;;;;;;;6.38;2.53;;;12.20;69.40;;;;;;4942178;28;20841;-73
2023/05/31 01:46:19;;;;;;;6.82;2.75;;;12.20;69.40;;;;;;4952890;28;20082;-73
2023/05/31 01:48:48;;;;;;;5.72;2.22;;;12.20;69.40;;;;;;4958567;28;20062;-73
2023/05/31 01:51:17;;;;;;;7.05;2.20;;;12.20;69.40;;;;;;4934481;28;20055;-73
2023/05/31 01:53:44;;;;;;;5.77;2.20;;;12.10;69.30;;;;;;4935257;28;20086;-73
2023/05/31 01:56:12;;;;;;;4.75;1.85;;;12.10;69.20;;;;;;4928260;28;20341;-73
2023/05/31 01:58:42;;;;;;;6.18;2.10;;;12.10;69.00;;;;;;4947840;28;20061;-73
2023/05/31 02:01:12;;;;;;;7.25;2.10;;;12.10;69.00;;;;;;4935639;28;20052;-73
2023/05/31 02:03:40;;;;;;;5.47;2.30;;;12.10;68.90;;;;;;4930656;28;20158;-73
2023/05/31 02:06:07;;;;;;;6.43;2.33;;;12.10;68.90;;;;;;4947985;28;20111;-73
2023/05/31 02:08:33;;;;;;;5.63;1.52;;;12.00;68.80;;;;;;4931775;29;20348;-73
2023/05/31 02:11:02;;;;;;;4.43;1.50;;;12.00;68.80;;;;;;4916869;28;20464;-73
2023/05/31 02:13:31;;;;;;;5.18;1.58;;;12.00;68.90;;;;;;4947529;28;20059;-73
2023/05/31 02:15:58;;;;;;;6.75;2.10;;;12.00;68.80;;;;;;4931362;29;20975;-73
2023/05/31 02:18:27;;;;;;;5.00;2.10;;;12.00;68.90;;;;;;4939052;28;20054;-73
2023/05/31 02:20:54;;;;;;;6.07;2.10;;;11.90;68.80;;;;;;4935720;28;20694;-73
2023/05/31 02:23:22;;;;;;;6.07;2.08;;;11.90;68.40;;;;;;4953725;28;20083;-73
2023/05/31 02:25:49;;;;;;;5.47;1.90;;;11.90;68.70;;;;;;4936809;28;20111;-73
2023/05/31 02:28:17;;;;;;;5.60;2.30;;;11.90;68.70;;;;;;4952902;28;20060;-72
2023/05/31 02:30:54;;;;;;;6.83;2.53;;;11.90;68.80;;;;;;4930709;29;20091;-73
2023/05/31 02:33:21;;;;;;;7.70;2.58;;;11.90;68.90;;;;;;4932703;28;20364;-73
2023/05/31 02:35:50;;;;;;;6.93;2.47;;;11.80;68.90;;;;;;4939335;28;20155;-73
2023/05/31 02:38:17;;;;;;;6.22;2.58;;;11.80;69.00;;;;;;4934434;28;20048;-73
2023/05/31 02:40:44;;;;;;;7.65;2.90;;;11.80;68.80;;;;;;4930500;29;20048;-73
2023/05/31 02:43:11;;;;;;;6.30;2.60;;;11.70;68.80;;;;;;4931222;29;20048;-73
2023/05/31 02:45:39;;;;;;;6.63;2.60;;;11.70;69.00;;;;;;4933632;28;20253;-73
2023/05/31 02:48:07;;;;;;;7.10;2.95;;;11.70;69.10;;;;;;4946855;28;20167;-73
2023/05/31 02:50:34;;;;;;;7.07;2.80;;;11.70;69.00;;;;;;4938445;28;20052;-72
2023/05/31 02:53:04;;;;;;;6.80;3.13;;;11.70;69.00;;;;;;4930562;28;20056;-73
2023/05/31 02:55:37;;;;;;;7.43;2.80;;;11.70;69.20;;;;;;4930895;29;20196;-73
2023/05/31 02:58:27;;;;;;;6.60;2.85;;;11.70;69.20;;;;;;4911722;29;20383;-73
2023/05/31 03:01:32;;;;;;;7.30;2.70;;;11.60;69.10;;;;;;4894377;29;20577;-72
2023/05/31 03:04:13;;;;;;;7.28;3.20;;;11.60;69.00;;;;;;4903467;29;20056;-73
2023/05/31 03:06:42;;;;;;;7.28;3.10;;;11.50;69.30;;;;;;4912917;29;20581;-73
2023/05/31 03:09:14;;;;;;;7.50;2.87;;;11.50;69.40;;;;;;4945958;28;20152;-73
2023/05/31 03:11:41;;;;;;;6.25;2.42;;;11.50;69.40;;;;;;4937667;28;20273;-73
2023/05/31 03:14:08;;;;;;;7.25;2.80;;;11.50;69.50;;;;;;4934852;28;20092;-73
2023/05/31 03:16:46;;;;;;;7.60;2.80;;;11.50;69.40;;;;;;4930158;29;20044;-73
2023/05/31 03:19:13;;;;;;;6.53;2.53;;;11.50;69.50;;;;;;4930485;29;20584;-73
2023/05/31 03:21:42;;;;;;;8.07;2.70;;;11.50;69.30;;;;;;4929806;29;20056;-73
2023/05/31 03:24:10;;;;;;;9.88;2.70;;;11.50;69.10;;;;;;4942848;28;21100;-73
2023/05/31 03:26:37;;;;;;;8.23;2.58;;;11.40;69.40;;;;;;4936171;28;20605;-73
2023/05/31 03:29:04;;;;;;;7.35;2.88;;;11.40;69.30;;;;;;4943796;28;20052;-73
2023/05/31 03:31:34;;;;;;;6.72;2.42;;;11.40;69.30;;;;;;4927251;28;20132;-72
2023/05/31 03:34:02;;;;;;;7.37;2.77;;;11.40;69.20;;;;;;4929585;28;20051;-73
2023/05/31 03:36:29;;;;;;;5.88;2.30;;;11.40;69.40;;;;;;4941295;28;20261;-73
2023/05/31 03:38:58;;;;;;;6.80;2.80;;;11.40;69.40;;;;;;4931294;28;20055;-73
2023/05/31 03:41:27;;;;;;;7.22;2.80;;;11.30;69.60;;;;;;4936156;28;20051;-73
2023/05/31 03:43:54;;;;;;;6.93;2.70;;;11.30;69.50;;;;;;4954731;28;20088;-73
2023/05/31 03:46:21;;;;;;;8.57;2.70;;;11.30;69.70;;;;;;4931314;28;20132;-73
2023/05/31 03:48:49;;;;;;;7.30;3.15;;;11.30;69.60;;;;;;4928811;28;20313;-73
2023/05/31 03:51:18;;;;;;;7.47;2.83;;;11.30;69.80;;;;;;4951245;28;20053;-73
2023/05/31 03:53:45;;;;;;;9.23;3.30;;;11.30;69.50;;;;;;4930092;29;20059;-73
2023/05/31 03:56:12;;;;;;;8.23;3.08;;;11.30;69.60;;;;;;4934245;28;20064;-73
2023/05/31 03:58:42;;;;;;;6.77;2.50;;;11.20;69.70;;;;;;4943715;28;20056;-73
2023/05/31 04:01:10;;;;;;;5.68;2.22;;;11.20;69.90;;;;;;4949497;28;20352;-73
2023/05/31 04:03:37;;;;;;;7.32;2.63;;;11.10;69.80;;;;;;4956567;28;20048;-73
2023/05/31 04:06:05;;;;;;;8.68;3.22;;;11.10;70.10;;;;;;4939721;28;20056;-73
2023/05/31 04:08:35;;;;;;;8.68;2.90;;;11.10;70.00;;;;;;4939560;28;20589;-73
2023/05/31 04:11:02;;;;;;;8.90;3.13;;;11.10;70.20;;;;;;4940409;28;20492;-73
2023/05/31 04:13:29;;;;;;;10.63;3.33;;;11.10;70.30;;;;;;4934012;28;20300;-73
2023/05/31 04:15:57;;;;;;;8.35;3.33;;;11.10;70.30;;;;;;4934765;28;20048;-74
2023/05/31 04:18:24;;;;;;;7.20;3.05;;;11.10;70.40;;;;;;4950506;28;20058;-73
2023/05/31 04:20:51;;;;;;;9.85;3.10;;;11.10;70.20;;;;;;4939573;28;20079;-73
2023/05/31 04:23:18;;;;;;;8.00;3.20;;;11.10;70.30;;;;;;4935317;28;20292;-73
2023/05/31 04:25:45;;;;;;;8.73;3.75;;;11.10;70.40;;;;;;4949007;28;20328;-73
2023/05/31 04:28:15;;;;;;;8.20;3.08;;;11.10;70.70;;;;;;4932646;28;20092;-73
2023/05/31 04:30:44;;;;;;;8.82;3.38;;;11.10;70.60;;;;;;4940152;28;20054;-73
2023/05/31 04:33:13;;;;;;;8.38;3.35;;;11.10;70.90;;;;;;4916472;28;20084;-73
2023/05/31 04:35:42;;;;;;;10.57;3.83;;;11.10;71.20;;;;;;4936663;28;20048;-72
2023/05/31 04:38:11;;;;;;;12.40;4.10;;;11.10;71.30;;;;;;4939032;28;20344;-73
2023/05/31 04:40:40;;;;;;;9.15;3.38;;;11.10;72.00;;;;;;4948282;28;20048;-73
2023/05/31 04:43:07;;;;;;;11.23;4.13;;;11.10;72.30;;;;;;4939750;28;20502;-73
2023/05/31 04:45:35;;;;;;;11.77;4.03;;;11.10;72.80;;;;;;4932888;29;20052;-73
2023/05/31 04:48:02;;;;;;;11.33;3.93;;;11.10;72.80;;;;;;4932599;29;20055;-73
2023/05/31 04:50:31;;;;;;;9.68;3.85;;;11.10;73.40;;;;;;4935271;28;20253;-73
2023/05/31 04:52:58;;;;;;;10.27;4.22;;;11.10;73.50;;;;;;4955189;28;20060;-73
2023/05/31 04:55:26;;;;;;;12.93;4.75;;;11.20;73.50;;;;;;4935542;28;20093;-73
2023/05/31 04:57:53;;;;;;;11.38;4.30;;;11.10;73.90;;;;;;4948391;28;20060;-73
2023/05/31 05:00:21;;;;;;;12.00;4.17;;;11.20;74.60;;;;;;4929429;28;20064;-74
2023/05/31 05:03:02;;;;;;;10.80;4.43;;;11.20;75.00;;;;;;4912785;29;20313;-73
2023/05/31 05:05:31;;;;;;;13.88;4.85;;;11.30;74.90;;;;;;4929212;29;20057;-73
2023/05/31 05:07:58;;;;;;;12.95;5.03;;;11.30;74.40;;;;;;4913698;29;20490;-73
2023/05/31 05:10:25;;;;;;;10.77;4.40;;;11.30;74.20;;;;;;4954646;28;20047;-73
2023/05/31 05:12:52;;;;;;;10.17;4.10;;;11.30;74.80;;;;;;4934027;28;20630;-73
2023/05/31 05:15:20;;;;;;;13.50;4.93;;;11.30;75.50;;;;;;4950802;28;20802;-73
2023/05/31 05:17:47;;;;;;;12.88;4.50;;;11.40;75.90;;;;;;4945721;28;20053;-73
2023/05/31 05:20:16;;;;;;;16.17;5.10;;;11.40;76.10;;;;;;4949726;28;20060;-73
2023/05/31 05:23:13;;;;;;;10.65;3.90;;;11.40;75.70;;;;;;4936378;28;20072;-74
2023/05/31 05:25:40;;;;;;;13.23;4.23;;;11.40;75.80;;;;;;4930948;29;20059;-74
2023/05/31 05:28:08;;;;;;;11.93;4.75;;;11.40;76.00;;;;;;4913686;29;20245;-73
2023/05/31 05:30:36;;;;;;;11.48;4.40;;;11.50;76.40;;;;;;4933698;28;20522;-73
2023/05/31 05:33:04;;;;;;;11.85;3.83;;;11.50;76.30;;;;;;4932606;28;20052;-73
2023/05/31 05:35:32;;;;;;;12.95;4.10;;;11.50;76.00;;;;;;4936137;28;20192;-73
2023/05/31 05:38:00;;;;;;;13.03;4.73;;;11.50;76.60;;;;;;4920150;29;20047;-73
2023/05/31 05:40:28;;;;;;;11.77;4.30;;;11.60;76.90;;;;;;4918599;29;20269;-73
2023/05/31 05:42:56;;;;;;;12.02;4.03;;;11.60;77.30;;;;;;4934484;28;20169;-73
2023/05/31 05:45:24;;;;;;;15.98;4.50;;;11.70;77.30;;;;;;4948348;28;21029;-73
2023/05/31 05:47:55;;;;;;;13.70;4.68;;;11.70;77.30;;;;;;4932559;29;20065;-73
2023/05/31 05:50:22;;;;;;;13.90;5.00;;;11.70;77.40;;;;;;4937942;28;20135;-73
2023/05/31 05:52:50;;;;;;;11.20;4.57;;;11.70;77.00;;;;;;4936934;28;20832;-74
2023/05/31 05:55:19;;;;;;;14.38;4.40;;;11.70;77.20;;;;;;4931588;28;20056;-73
2023/05/31 05:57:47;;;;;;;12.00;4.32;;;11.90;77.60;;;;;;4930266;28;20159;-73
2023/05/31 06:00:37;;;;;;;11.77;4.32;;;11.90;77.70;;;;;;4937694;28;20051;-73
2023/05/31 06:03:05;;;;;;;10.27;4.10;;;11.90;77.50;;;;;;4950562;28;20052;-73
2023/05/31 06:05:32;;;;;;;13.45;4.72;;;11.90;77.50;;;;;;4934947;28;20273;-74
2023/05/31 06:08:00;;;;;;;11.30;4.30;;;12.00;77.30;;;;;;4931334;28;20055;-73
2023/05/31 06:10:27;;;;;;;10.90;4.90;;;12.00;77.20;;;;;;4953596;28;20150;-73
2023/05/31 06:12:56;;;;;;;13.20;5.00;;;12.00;77.20;;;;;;4935748;28;20048;-73
2023/05/31 06:15:27;;;;;;;13.17;4.47;;;12.10;78.20;;;;;;4938292;28;20992;-73
2023/05/31 06:17:54;;;;;;;11.75;4.25;;;12.10;78.40;;;;;;4944451;28;20347;-73
2023/05/31 06:20:22;;;;;;;13.40;5.05;;;12.20;78.40;;;;;;4912170;29;20055;-73
2023/05/31 06:22:51;;;;;;;10.80;4.10;;;12.20;78.70;;;;;;4932774;28;20048;-73
2023/05/31 06:25:19;;;;;;;11.48;4.13;;;12.30;78.60;;;;;;4930892;29;20052;-73
2023/05/31 06:27:46;;;;;;;11.37;4.40;;;12.40;78.90;;;;;;4927449;29;20045;-73
2023/05/31 06:30:16;;;;;;;10.73;4.15;;;12.40;78.30;;;;;;4932537;28;20265;-73
2023/05/31 06:32:45;;;;;;;11.02;3.90;;;12.50;77.90;;;;;;4935582;28;20083;-73
2023/05/31 06:35:18;;;;;;;16.30;4.90;;;12.50;77.20;;;;;;4933722;28;20169;-73
2023/05/31 06:37:45;;;;;;;12.77;4.45;;;12.50;78.40;;;;;;4957271;28;20077;-73
2023/05/31 06:40:13;;;;;;;9.40;3.67;;;12.60;78.80;;;;;;4940125;28;20060;-73
2023/05/31 06:42:40;;;;;;;13.52;4.20;;;12.70;79.20;;;;;;4929334;29;20285;-72
2023/05/31 06:45:27;;;;;;;9.40;4.28;;;12.70;78.80;;;;;;4928556;29;20143;-73
2023/05/31 06:47:54;;;;;;;11.82;3.65;;;12.80;78.50;;;;;;4930960;29;20072;-73
2023/05/31 06:50:40;;;;;;;9.95;4.15;;;12.90;78.80;;;;;;4933488;28;20048;-74
2023/05/31 06:53:13;;;;;;;13.20;4.30;;;12.90;78.60;;;;;;4939930;28;20464;-73
2023/05/31 06:55:44;;;;;;;13.43;4.45;;;13.00;78.20;;;;;;4949672;28;20982;-73
2023/05/31 06:58:16;;;;;;;11.88;4.32;;;13.00;77.90;;;;;;4903351;29;20527;-72
2023/05/31 07:00:45;;;;;;;10.93;3.95;;;13.10;78.40;;;;;;4924477;29;20107;-73
2023/05/31 07:03:12;;;;;;;10.35;4.20;;;13.10;78.60;;;;;;4917079;29;20780;-73
2023/05/31 07:05:40;;;;;;;12.07;3.93;;;13.10;78.70;;;;;;4926206;28;20095;-73
2023/05/31 07:08:07;;;;;;;11.90;3.78;;;13.30;78.50;;;;;;4927603;28;20258;-73
2023/05/31 07:10:45;;;;;;;12.32;4.15;;;13.30;78.10;;;;;;4934292;28;20126;-73
2023/05/31 07:13:12;;;;;;;47.78;7.45;;;13.30;77.60;;;;;;4937119;28;20055;-73
2023/05/31 07:15:40;;;;;;;14.45;4.72;;;13.40;77.40;;;;;;4944390;28;20102;-73
2023/05/31 07:18:08;;;;;;;10.50;4.10;;;13.40;78.10;;;;;;4934456;28;20565;-74
2023/05/31 07:20:39;;;;;;;11.18;3.92;;;13.50;78.20;;;;;;4938302;28;20296;-73
2023/05/31 07:23:06;;;;;;;13.55;4.70;;;13.50;78.40;;;;;;4927755;28;20048;-73
2023/05/31 07:25:33;;;;;;;10.30;3.90;;;13.60;78.60;;;;;;4928112;28;20052;-73
2023/05/31 07:28:00;;;;;;;10.73;4.93;;;13.60;78.40;;;;;;4946690;28;20067;-73
2023/05/31 07:30:27;;;;;;;10.90;4.20;;;13.70;78.50;;;;;;4923201;28;20049;-73
2023/05/31 07:32:54;;;;;;;12.80;4.93;;;13.80;78.40;;;;;;4925560;28;20714;-73
2023/05/31 07:35:23;;;;;;;13.32;5.00;;;13.90;78.60;;;;;;4932888;28;20056;-73
2023/05/31 07:37:50;;;;;;;12.23;4.63;;;13.90;78.40;;;;;;4937000;28;20062;-73
2023/05/31 07:40:17;;;;;;;12.50;4.50;;;14.00;78.30;;;;;;4946751;28;20061;-73
2023/05/31 07:42:45;;;;;;;11.53;5.00;;;14.00;78.00;;;;;;4931028;28;20062;-73
2023/05/31 07:45:12;;;;;;;10.38;4.88;;;14.10;77.80;;;;;;4930225;28;20273;-73
2023/05/31 07:47:39;;;;;;;10.80;4.43;;;14.20;77.50;;;;;;4931901;28;20047;-73
2023/05/31 07:50:07;;;;;;;11.32;5.20;;;14.20;78.00;;;;;;4925516;28;20060;-73
2023/05/31 07:52:36;;;;;;;8.85;4.25;;;14.30;78.20;;;;;;4919273;28;20494;-73
2023/05/31 07:55:03;;;;;;;10.67;4.70;;;14.40;78.10;;;;;;4946983;28;20056;-73
2023/05/31 07:57:31;;;;;;;10.15;4.25;;;14.40;77.50;;;;;;4926811;28;21128;-73
2023/05/31 07:59:58;;;;;;;10.18;4.45;;;14.50;77.90;;;;;;4921603;29;20052;-73
2023/05/31 08:02:25;;;;;;;10.35;4.47;;;14.60;78.20;;;;;;4929451;28;20048;-73
2023/05/31 08:04:54;;;;;;;11.75;4.70;;;14.60;78.10;;;;;;4927942;29;20890;-73
2023/05/31 08:07:21;;;;;;;9.37;4.33;;;14.70;77.80;;;;;;4934806;28;20155;-73
2023/05/31 08:09:50;;;;;;;9.63;3.80;;;14.80;77.30;;;;;;4946508;28;20687;-74
2023/05/31 08:12:17;;;;;;;12.02;4.72;;;14.80;77.30;;;;;;4930296;28;20138;-73
2023/05/31 08:14:44;;;;;;;9.73;4.05;;;14.90;77.00;;;;;;4933566;28;20056;-73
2023/05/31 08:17:11;;;;;;;9.15;3.88;;;15.00;76.90;;;;;;4940222;28;20088;-74
2023/05/31 08:19:38;;;;;;;10.07;3.80;;;15.00;75.90;;;;;;4935131;28;20101;-73
2023/05/31 08:22:05;;;;;;;9.20;3.92;;;15.00;76.10;;;;;;4930858;28;20375;-73
2023/05/31 08:24:32;;;;;;;16.60;3.95;;;15.10;76.40;;;;;;4933040;28;20055;-74
2023/05/31 08:27:01;;;;;;;11.00;4.00;;;15.20;76.00;;;;;;4934392;28;20056;-74
2023/05/31 08:29:28;;;;;;;9.50;3.47;;;15.30;75.90;;;;;;4927425;28;20056;-73
2023/05/31 08:31:55;;;;;;;8.03;3.50;;;15.40;75.80;;;;;;4954612;28;20203;-73
2023/05/31 08:34:23;;;;;;;9.45;3.90;;;15.40;75.60;;;;;;4938382;28;20782;-72
2023/05/31 08:36:50;;;;;;;8.60;3.90;;;15.50;75.40;;;;;;4940970;28;20052;-73
2023/05/31 08:39:17;;;;;;;10.27;3.72;;;15.50;75.20;;;;;;4945460;28;20534;-73
2023/05/31 08:41:53;;;;;;;10.15;3.92;;;15.60;75.30;;;;;;4937222;28;20057;-73
2023/05/31 08:44:22;;;;;;;9.73;3.70;;;15.70;75.00;;;;;;4934048;28;20048;-72
2023/05/31 08:46:49;;;;;;;9.07;3.40;;;15.80;74.50;;;;;;4937952;28;20328;-73
2023/05/31 08:49:17;;;;;;;9.85;3.63;;;15.80;74.00;;;;;;4923281;28;20057;-73
2023/05/31 08:51:46;;;;;;;9.88;3.70;;;15.90;74.00;;;;;;4926270;29;20147;-73
2023/05/31 08:54:14;;;;;;;7.25;2.83;;;16.00;73.80;;;;;;4932825;28;20044;-73
2023/05/31 08:56:42;;;;;;;8.73;3.07;;;16.00;74.20;;;;;;4943204;28;20054;-73
2023/05/31 08:59:11;;;;;;;8.30;3.00;;;16.10;74.10;;;;;;4929984;28;20253;-73
2023/05/31 09:01:40;;;;;;;7.53;3.67;;;16.20;73.90;;;;;;4934055;28;20067;-73
2023/05/31 09:04:07;;;;;;;9.00;3.45;;;16.20;73.70;;;;;;4932547;28;20052;-73
2023/05/31 09:06:34;;;;;;;6.90;2.80;;;16.30;73.50;;;;;;4930817;28;20051;-73
2023/05/31 09:09:02;;;;;;;9.37;3.53;;;16.40;73.20;;;;;;4936847;28;20048;-73
2023/05/31 09:11:29;;;;;;;9.63;3.45;;;16.40;73.20;;;;;;4931284;28;20280;-73
2023/05/31 09:13:56;;;;;;;10.68;3.00;;;16.40;72.80;;;;;;4924561;28;20059;-73
2023/05/31 09:16:24;;;;;;;8.55;3.40;;;16.50;72.60;;;;;;4944836;28;20142;-73
2023/05/31 09:19:02;;;;;;;7.35;3.20;;;16.60;72.30;;;;;;4935454;28;20051;-73
2023/05/31 09:21:29;;;;;;;9.70;2.67;;;16.70;72.10;;;;;;4930707;29;20507;-73
2023/05/31 09:23:59;;;;;;;7.60;2.85;;;16.70;71.70;;;;;;4932407;29;20298;-73
2023/05/31 09:26:26;;;;;;;10.90;3.20;;;16.80;71.50;;;;;;4932706;28;20772;-73
2023/05/31 09:28:55;;;;;;;21.65;3.85;;;16.90;71.50;;;;;;4946834;28;20056;-73
2023/05/31 09:31:22;;;;;;;8.50;3.40;;;17.00;71.70;;;;;;4930523;29;20056;-73
2023/05/31 09:33:51;;;;;;;7.10;2.77;;;17.00;71.30;;;;;;4931076;28;20052;-73
2023/05/31 09:36:26;;;;;;;8.10;2.88;;;17.20;70.90;;;;;;4937582;28;20276;-72
2023/05/31 09:39:01;;;;;;;8.88;2.92;;;17.20;70.80;;;;;;4934526;28;20056;-73
2023/05/31 09:41:28;;;;;;;8.65;2.92;;;17.20;70.60;;;;;;4925966;28;20079;-73
2023/05/31 09:43:55;;;;;;;7.75;3.42;;;17.40;70.50;;;;;;4924823;28;21038;-73
2023/05/31 09:46:24;;;;;;;7.83;3.30;;;17.40;70.30;;;;;;4930751;29;20056;-73
2023/05/31 09:48:58;;;;;;;9.10;3.35;;;17.50;69.80;;;;;;4932391;28;20261;-73
2023/05/31 09:51:27;;;;;;;15.45;3.90;;;17.50;70.00;;;;;;4946278;28;20055;-73
2023/05/31 09:53:56;;;;;;;6.90;2.67;;;17.50;69.80;;;;;;4946478;28;20067;-73
2023/05/31 09:56:25;;;;;;;9.05;3.60;;;17.60;69.70;;;;;;4930845;28;20092;-73
2023/05/31 09:58:52;;;;;;;7.80;2.83;;;17.70;69.70;;;;;;4936395;28;20079;-73
2023/05/31 10:01:20;;;;;;;8.05;3.10;;;17.80;69.70;;;;;;4932661;28;20311;-73
2023/05/31 10:03:49;;;;;;;7.97;2.80;;;17.80;69.60;;;;;;4933720;28;20052;-73
2023/05/31 10:06:17;;;;;;;6.28;2.70;;;17.90;69.10;;;;;;4937229;28;20135;-73
2023/05/31 10:08:47;;;;;;;6.55;2.88;;;18.00;68.90;;;;;;4946218;28;20132;-73
2023/05/31 10:11:17;;;;;;;8.50;2.87;;;18.00;68.60;;;;;;4929494;29;20052;-73
2023/05/31 10:13:45;;;;;;;8.77;2.90;;;18.10;68.00;;;;;;4914662;29;20356;-73
2023/05/31 10:16:15;;;;;;;8.18;3.05;;;18.20;68.00;;;;;;4922670;28;20147;-73
2023/05/31 10:18:46;;;;;;;9.60;2.97;;;18.20;67.70;;;;;;4938421;28;20055;-73
2023/05/31 10:21:22;;;;;;;6.90;2.97;;;18.30;67.90;;;;;;4933955;28;20656;-73
2023/05/31 10:23:57;;;;;;;7.27;3.10;;;18.40;67.80;;;;;;4923097;28;20583;-73
2023/05/31 10:26:32;;;;;;;8.57;2.85;;;18.50;68.00;;;;;;4926886;28;20253;-73
2023/05/31 10:29:07;;;;;;;9.90;3.17;;;18.60;67.90;;;;;;4924399;28;20229;-73
2023/05/31 10:31:50;;;;;;;6.97;3.03;;;18.70;67.90;;;;;;4921740;28;20067;-73
2023/05/31 10:34:21;;;;;;;8.88;3.05;;;18.80;67.90;;;;;;4930939;28;20570;-72
2023/05/31 10:36:50;;;;;;;8.70;3.60;;;18.80;67.70;;;;;;4931753;28;20094;-73
2023/05/31 10:39:25;;;;;;;7.05;2.90;;;18.90;67.30;;;;;;4927473;28;20264;-73
2023/05/31 10:42:11;;;;;;;6.47;2.80;;;19.00;67.20;;;;;;4946590;28;20124;-72
2023/05/31 10:44:46;;;;;;;9.13;3.10;;;19.10;66.60;;;;;;4930927;28;20048;-72
2023/05/31 10:47:16;;;;;;;9.00;3.08;;;19.20;66.40;;;;;;4936131;28;20086;-72
2023/05/31 10:49:45;;;;;;;8.70;2.80;;;19.30;66.30;;;;;;4929743;28;20052;-73
2023/05/31 10:52:14;;;;;;;7.88;3.17;;;19.40;66.30;;;;;;4946134;28;20877;-73
2023/05/31 10:54:43;;;;;;;8.45;2.75;;;19.50;65.80;;;;;;4922349;29;20143;-73
2023/05/31 10:57:10;;;;;;;7.28;2.60;;;19.60;65.30;;;;;;4927937;29;20582;-72
2023/05/31 10:59:46;;;;;;;6.82;2.70;;;19.70;65.40;;;;;;4918815;29;20060;-73
2023/05/31 11:02:13;;;;;;;7.87;3.37;;;19.70;65.40;;;;;;4922640;28;20151;-73
2023/05/31 11:04:41;;;;;;;6.47;2.67;;;19.90;65.20;;;;;;4934873;28;20285;-73
2023/05/31 11:07:17;;;;;;;6.95;2.88;;;20.00;65.30;;;;;;4932284;28;20481;-73
2023/05/31 11:10:03;;;;;;;6.90;2.70;;;20.00;64.90;;;;;;4943954;28;20143;-73
2023/05/31 11:12:34;;;;;;;7.65;2.80;;;20.10;64.70;;;;;;4920860;29;20058;-73
2023/05/31 11:15:03;;;;;;;7.30;2.67;;;20.10;64.60;;;;;;4929126;29;20207;-74
2023/05/31 11:17:30;;;;;;;7.43;2.80;;;20.30;64.30;;;;;;4929765;28;20765;-75
2023/05/31 11:19:58;;;;;;;10.18;3.25;;;20.30;64.80;;;;;;4936856;28;20103;-72
2023/05/31 11:22:28;;;;;;;7.85;2.55;;;20.40;64.00;;;;;;4942041;28;20044;-72
2023/05/31 11:24:57;;;;;;;8.68;2.92;;;20.50;63.20;;;;;;4931185;28;20269;-72
2023/05/31 11:27:36;;;;;;;8.57;3.73;;;20.50;63.80;;;;;;4921116;29;20803;-72
2023/05/31 11:30:07;;;;;;;8.32;3.50;;;20.60;63.70;;;;;;4921927;28;20361;-72
2023/05/31 11:32:59;;;;;;;10.18;3.63;;;20.70;63.70;;;;;;4917727;28;20144;-73
2023/05/31 11:35:32;;;;;;;8.35;3.25;;;20.80;64.10;;;;;;4922902;28;20063;-71
2023/05/31 11:38:05;;;;;;;8.20;3.30;;;20.90;63.70;;;;;;4930945;28;20529;-77
2023/05/31 11:40:35;;;;;;;8.23;3.50;;;20.90;62.90;;;;;;4922922;28;20648;-77
2023/05/31 11:43:11;;;;;;;10.10;3.53;;;21.00;63.40;;;;;;4937237;28;20288;-77
2023/05/31 11:45:46;;;;;;;12.40;3.58;;;21.10;63.20;;;;;;4928262;28;20059;-76
2023/05/31 11:48:38;;;;;;;10.45;3.60;;;21.10;63.50;;;;;;4933955;28;20060;-76
2023/05/31 11:51:06;;;;;;;7.82;3.30;;;21.20;63.00;;;;;;4929491;28;20135;-76
2023/05/31 11:53:33;;;;;;;10.87;3.97;;;21.30;62.90;;;;;;4927360;28;20076;-77
2023/05/31 11:56:00;;;;;;;10.90;4.25;;;21.30;62.90;;;;;;4920393;28;20309;-75
2023/05/31 11:58:29;;;;;;;10.52;4.13;;;21.40;62.30;;;;;;4950941;28;20047;-73
2023/05/31 12:01:01;;;;;;;10.48;4.22;;;21.40;62.10;;;;;;4934595;28;20076;-72
2023/05/31 12:03:30;;;;;;;13.38;4.20;;;21.50;61.90;;;;;;4928411;28;20053;-72
2023/05/31 12:05:59;;;;;;;9.20;4.00;;;21.50;61.60;;;;;;4932123;28;20059;-72
2023/05/31 12:08:28;;;;;;;9.18;3.80;;;21.50;61.50;;;;;;4920381;28;20822;-73
2023/05/31 12:11:03;;;;;;;8.15;3.78;;;21.60;61.50;;;;;;4925529;28;20055;-73
2023/05/31 12:13:33;;;;;;;9.02;3.63;;;21.70;61.40;;;;;;4920235;28;20052;-76
2023/05/31 12:16:00;;;;;;;9.68;3.92;;;21.70;61.10;;;;;;4931351;28;20206;-76
2023/05/31 12:18:30;;;;;;;9.37;4.10;;;21.70;60.90;;;;;;4922577;28;20187;-75
2023/05/31 12:20:57;;;;;;;8.60;3.67;;;21.90;60.90;;;;;;4931512;28;20301;-74
2023/05/31 12:23:24;;;;;;;21.17;4.95;;;21.90;60.50;;;;;;4952438;28;20063;-75
2023/05/31 12:25:52;;;;;;;8.95;4.75;;;21.90;60.70;;;;;;4928529;29;20056;-75
2023/05/31 12:28:19;;;;;;;14.27;4.82;;;22.00;60.00;;;;;;4920720;29;20111;-72
2023/05/31 12:30:49;;;;;;;9.30;3.90;;;22.00;59.70;;;;;;4925509;29;20087;-74
2023/05/31 12:33:16;;;;;;;8.82;3.88;;;22.10;59.70;;;;;;4926161;28;20312;-72
2023/05/31 12:35:47;;;;;;;8.10;4.00;;;22.20;60.00;;;;;;4935114;28;20131;-71
2023/05/31 12:38:15;;;;;;;9.98;4.00;;;22.30;59.20;;;;;;4934915;28;20135;-73
2023/05/31 12:40:43;;;;;;;9.00;3.95;;;22.30;59.00;;;;;;4936812;28;20055;-74
2023/05/31 12:43:14;;;;;;;54.23;8.60;;;22.30;59.00;;;;;;4923029;29;20056;-75
2023/05/31 12:45:42;;;;;;;10.07;3.70;;;22.40;59.20;;;;;;4933261;28;20360;-75
2023/05/31 12:48:11;;;;;;;9.98;4.07;;;22.50;58.70;;;;;;4929450;29;20063;-76
2023/05/31 12:50:45;;;;;;;27.13;5.45;;;22.50;58.80;;;;;;4926143;28;20049;-74
2023/05/31 12:53:12;;;;;;;8.32;4.20;;;22.50;58.10;;;;;;4930868;29;20048;-73
2023/05/31 12:55:39;;;;;;;7.87;4.00;;;22.60;57.60;;;;;;4929957;29;20058;-72